createdAt,value
2019-03-26T00:01:23.116Z,99.90
2019-03-26T00:04:05.328Z,99.90
2019-03-26T00:06:27.285Z,99.90
2019-03-26T00:08:58.511Z,99.90
2019-03-26T00:11:29.863Z,99.90
2019-03-26T00:14:01.104Z,99.90
2019-03-26T00:16:32.308Z,99.90
2019-03-26T00:19:03.562Z,99.90
2019-03-26T00:21:35.056Z,99.90
2019-03-26T00:24:06.630Z,99.90
2019-03-26T00:26:37.837Z,99.90
2019-03-26T00:29:09.106Z,99.90
2019-03-26T00:31:40.250Z,99.90
2019-03-26T00:34:19.250Z,99.90
2019-03-26T00:36:44.502Z,99.90
2019-03-26T00:39:15.868Z,99.90
2019-03-26T00:41:47.131Z,99.90
2019-03-26T00:44:18.536Z,99.90
2019-03-26T00:46:49.768Z,99.90
2019-03-26T00:49:20.983Z,99.90
2019-03-26T00:51:52.294Z,99.90
2019-03-26T00:54:23.514Z,99.90
2019-03-26T00:56:54.746Z,99.90
2019-03-26T00:59:26.136Z,99.90
2019-03-26T01:01:57.369Z,99.90
2019-03-26T01:04:33.180Z,99.90
2019-03-26T01:07:01.630Z,99.90
2019-03-26T01:09:32.873Z,99.90
2019-03-26T01:12:04.101Z,99.90
2019-03-26T01:14:35.304Z,99.90
2019-03-26T01:17:06.516Z,99.90
2019-03-26T01:19:37.756Z,99.90
2019-03-26T01:22:08.986Z,99.90
2019-03-26T01:24:40.206Z,99.90
2019-03-26T01:27:11.453Z,99.90
2019-03-26T01:29:42.610Z,99.90
2019-03-26T01:32:13.865Z,99.90
2019-03-26T01:34:46.149Z,99.90
2019-03-26T01:37:17.614Z,99.90
2019-03-26T01:39:48.839Z,99.90
2019-03-26T01:42:20.214Z,99.90
2019-03-26T01:44:51.467Z,99.90
2019-03-26T01:47:22.737Z,99.90
2019-03-26T01:49:53.920Z,99.90
2019-03-26T01:52:25.167Z,99.90
2019-03-26T01:54:56.279Z,99.90
2019-03-26T01:57:27.846Z,99.90
2019-03-26T01:59:59.059Z,99.90
2019-03-26T02:02:30.262Z,99.90
2019-03-26T02:05:01.496Z,99.90
2019-03-26T02:07:32.762Z,99.90
2019-03-26T02:10:04.024Z,99.90
2019-03-26T02:12:35.262Z,99.90
2019-03-26T02:15:07.277Z,99.90
2019-03-26T02:17:38.508Z,99.90
2019-03-26T02:20:09.782Z,99.90
2019-03-26T02:22:41.082Z,99.90
2019-03-26T02:25:12.315Z,99.90
2019-03-26T02:27:43.509Z,99.90
2019-03-26T02:30:14.871Z,99.90
2019-03-26T02:32:46.092Z,99.90
2019-03-26T02:35:19.042Z,99.90
2019-03-26T02:37:50.247Z,99.90
2019-03-26T02:40:21.505Z,99.90
2019-03-26T02:42:52.706Z,99.90
2019-03-26T02:45:23.927Z,99.90
2019-03-26T02:47:55.127Z,99.90
2019-03-26T02:50:26.348Z,99.90
2019-03-26T02:52:57.575Z,99.90
2019-03-26T02:55:28.925Z,99.90
2019-03-26T02:58:00.158Z,99.90
2019-03-26T03:00:31.380Z,99.90
2019-03-26T03:03:02.572Z,99.90
2019-03-26T03:05:36.302Z,99.90
2019-03-26T03:08:06.826Z,99.90
2019-03-26T03:10:38.194Z,99.90
2019-03-26T03:13:09.656Z,99.90
2019-03-26T03:15:40.888Z,99.90
2019-03-26T03:18:12.084Z,99.90
2019-03-26T03:20:43.308Z,99.90
2019-03-26T03:23:14.577Z,99.90
2019-03-26T03:25:46.007Z,99.90
2019-03-26T03:28:17.299Z,99.90
2019-03-26T03:30:48.537Z,99.90
2019-03-26T03:33:19.918Z,99.90
2019-03-26T03:35:52.963Z,99.90
2019-03-26T03:38:24.092Z,99.90
2019-03-26T03:40:55.428Z,99.90
2019-03-26T03:43:26.678Z,99.90
2019-03-26T03:45:58.037Z,99.90
2019-03-26T03:48:29.434Z,99.90
2019-03-26T03:51:01.455Z,99.90
2019-03-26T03:53:32.766Z,99.90
2019-03-26T03:56:04.677Z,99.90
2019-03-26T03:58:38.223Z,99.90
2019-03-26T04:01:09.406Z,99.90
2019-03-26T04:03:40.651Z,99.90
2019-03-26T04:06:11.949Z,99.90
2019-03-26T04:08:43.178Z,99.90
2019-03-26T04:11:14.367Z,99.90
2019-03-26T04:13:45.575Z,99.90
2019-03-26T04:16:16.766Z,99.90
2019-03-26T04:18:48.141Z,99.90
2019-03-26T04:21:19.342Z,99.90
2019-03-26T04:23:50.589Z,99.90
2019-03-26T04:26:21.799Z,99.90
2019-03-26T04:28:53.146Z,99.90
2019-03-26T04:31:24.365Z,99.90
2019-03-26T04:33:55.622Z,99.90
2019-03-26T04:36:26.880Z,99.90
2019-03-26T04:38:58.107Z,99.90
2019-03-26T04:41:29.305Z,99.90
2019-03-26T04:44:00.523Z,99.90
2019-03-26T04:46:31.729Z,99.90
2019-03-26T04:49:02.971Z,99.90
2019-03-26T04:51:34.196Z,99.90
2019-03-26T04:54:05.416Z,99.90
2019-03-26T04:56:36.625Z,99.90
2019-03-26T04:59:07.862Z,99.90
2019-03-26T05:01:39.082Z,99.90
2019-03-26T05:04:10.329Z,99.90
2019-03-26T05:06:41.759Z,99.90
2019-03-26T05:09:13.149Z,99.90
2019-03-26T05:11:44.343Z,99.90
2019-03-26T05:14:15.579Z,99.90
2019-03-26T05:16:46.821Z,99.90
2019-03-26T05:19:18.184Z,99.90
2019-03-26T05:21:49.401Z,99.90
2019-03-26T05:24:20.616Z,99.90
2019-03-26T05:26:51.942Z,99.90
2019-03-26T05:29:23.136Z,99.90
2019-03-26T05:31:54.337Z,99.90
2019-03-26T05:34:25.580Z,99.90
2019-03-26T05:36:56.861Z,99.90
2019-03-26T05:39:28.096Z,99.90
2019-03-26T05:41:59.322Z,99.90
2019-03-26T05:44:30.597Z,99.90
2019-03-26T05:47:01.972Z,99.90
2019-03-26T05:49:33.316Z,99.90
2019-03-26T05:52:04.654Z,99.90
2019-03-26T05:54:35.836Z,99.90
2019-03-26T05:57:07.080Z,99.90
2019-03-26T05:59:38.293Z,99.90
2019-03-26T06:02:15.125Z,99.90
2019-03-26T06:04:42.462Z,99.90
2019-03-26T06:07:13.697Z,99.90
2019-03-26T06:09:44.836Z,99.90
2019-03-26T06:12:16.049Z,99.90
2019-03-26T06:14:47.247Z,99.90
2019-03-26T06:17:18.472Z,99.90
2019-03-26T06:19:51.808Z,99.90
2019-03-26T06:22:23.214Z,99.90
2019-03-26T06:24:54.467Z,99.90
2019-03-26T06:27:25.758Z,99.90
2019-03-26T06:29:56.972Z,99.90
2019-03-26T06:32:28.210Z,99.90
2019-03-26T06:34:59.451Z,99.90
2019-03-26T06:37:30.826Z,99.90
2019-03-26T06:40:02.040Z,99.90
2019-03-26T06:42:33.328Z,99.70
2019-03-26T06:45:05.106Z,94.40
2019-03-26T06:47:36.365Z,89.60
2019-03-26T06:50:09.719Z,81.50
2019-03-26T06:52:40.990Z,72.20
2019-03-26T06:55:13.133Z,63.70
2019-03-26T06:57:44.412Z,60.00
2019-03-26T07:00:17.805Z,55.50
2019-03-26T07:02:49.136Z,53.60
2019-03-26T07:05:20.364Z,48.70
2019-03-26T07:07:51.584Z,46.70
2019-03-26T07:10:28.188Z,42.20
2019-03-26T07:12:59.987Z,38.80
2019-03-26T07:15:31.202Z,38.50
2019-03-26T07:18:02.421Z,37.10
2019-03-26T07:20:33.653Z,40.60
2019-03-26T07:23:04.888Z,42.40
2019-03-26T07:25:36.572Z,43.40
2019-03-26T07:28:07.804Z,46.00
2019-03-26T07:30:45.901Z,46.10
2019-03-26T07:33:17.160Z,48.80
2019-03-26T07:35:48.381Z,50.30
2019-03-26T07:38:19.691Z,50.60
2019-03-26T07:40:51.061Z,52.20
2019-03-26T07:43:22.277Z,53.00
2019-03-26T07:45:53.553Z,54.70
2019-03-26T07:48:24.793Z,55.80
2019-03-26T07:50:56.216Z,55.50
2019-03-26T07:53:27.445Z,57.20
2019-03-26T07:55:58.821Z,57.50
2019-03-26T07:58:33.073Z,56.10
2019-03-26T08:01:03.043Z,56.50
2019-03-26T08:03:34.317Z,57.30
2019-03-26T08:06:05.718Z,57.10
2019-03-26T08:08:36.982Z,58.10
2019-03-26T08:11:08.260Z,59.60
2019-03-26T08:13:41.010Z,60.80
2019-03-26T08:16:12.522Z,61.00
2019-03-26T08:18:43.725Z,61.70
2019-03-26T08:21:15.000Z,61.20
2019-03-26T08:23:46.244Z,60.30
2019-03-26T08:26:17.580Z,61.90
2019-03-26T08:28:48.829Z,61.80
2019-03-26T08:31:20.131Z,61.60
2019-03-26T08:33:51.337Z,61.30
2019-03-26T08:36:22.896Z,60.00
2019-03-26T08:38:54.171Z,60.20
2019-03-26T08:41:25.436Z,59.80
2019-03-26T08:43:56.669Z,59.50
2019-03-26T08:46:27.950Z,59.30
2019-03-26T08:48:59.355Z,59.80
2019-03-26T08:51:30.561Z,59.60
2019-03-26T08:54:01.760Z,59.80
2019-03-26T08:56:32.978Z,61.50
2019-03-26T08:59:04.265Z,62.60
2019-03-26T09:01:35.503Z,62.30
2019-03-26T09:04:06.777Z,62.40
2019-03-26T09:06:38.006Z,63.60
2019-03-26T09:09:09.943Z,61.20
2019-03-26T09:11:41.265Z,61.30
2019-03-26T09:14:12.685Z,60.30
2019-03-26T09:16:43.965Z,60.60
2019-03-26T09:19:15.194Z,60.00
2019-03-26T09:21:46.421Z,59.40
2019-03-26T09:24:17.761Z,60.80
2019-03-26T09:26:48.982Z,61.50
2019-03-26T09:29:20.181Z,61.90
2019-03-26T09:31:51.397Z,61.20
2019-03-26T09:34:22.641Z,62.90
2019-03-26T09:36:53.902Z,63.10
2019-03-26T09:39:25.132Z,62.70
2019-03-26T09:41:56.283Z,62.20
2019-03-26T09:44:27.592Z,63.30
2019-03-26T09:46:58.783Z,62.80
2019-03-26T09:49:30.022Z,62.20
2019-03-26T09:52:01.225Z,61.50
2019-03-26T09:54:32.602Z,62.30
2019-03-26T09:57:03.925Z,63.50
2019-03-26T09:59:35.168Z,61.40
2019-03-26T10:02:06.443Z,59.70
2019-03-26T10:04:37.706Z,60.10
2019-03-26T10:07:20.947Z,60.80
2019-03-26T10:09:41.867Z,58.80
2019-03-26T10:12:13.189Z,57.40
2019-03-26T10:14:44.435Z,55.50
2019-03-26T10:17:15.671Z,54.40
2019-03-26T10:19:46.927Z,54.40
2019-03-26T10:22:20.057Z,54.10
2019-03-26T10:24:51.168Z,53.60
2019-03-26T10:27:22.433Z,52.00
2019-03-26T10:29:53.686Z,52.20
2019-03-26T10:32:24.995Z,53.30
2019-03-26T10:34:56.211Z,53.80
2019-03-26T10:37:27.519Z,53.80
2019-03-26T10:39:58.751Z,54.40
2019-03-26T10:42:30.002Z,54.40
2019-03-26T10:45:01.271Z,54.30
2019-03-26T10:47:32.521Z,54.30
2019-03-26T10:50:03.762Z,55.20
2019-03-26T10:52:36.076Z,55.40
2019-03-26T10:55:07.659Z,55.10
2019-03-26T10:57:38.930Z,55.10
2019-03-26T11:00:10.810Z,54.20
2019-03-26T11:02:42.058Z,53.60
2019-03-26T11:05:13.506Z,54.20
2019-03-26T11:07:44.746Z,51.70
2019-03-26T11:10:16.552Z,51.60
2019-03-26T11:12:47.817Z,51.70
2019-03-26T11:15:19.388Z,51.90
2019-03-26T11:17:50.644Z,52.60
2019-03-26T11:20:21.905Z,52.70
2019-03-26T11:22:53.228Z,53.00
2019-03-26T11:25:24.631Z,54.00
2019-03-26T11:27:55.891Z,53.20
2019-03-26T11:30:27.121Z,53.00
2019-03-26T11:32:58.399Z,52.10
2019-03-26T11:35:29.638Z,53.50
2019-03-26T11:38:00.940Z,53.40
2019-03-26T11:40:32.263Z,52.60
2019-03-26T11:43:03.590Z,52.30
2019-03-26T11:45:34.857Z,51.80
2019-03-26T11:48:06.081Z,51.70
2019-03-26T11:50:37.375Z,50.50
2019-03-26T11:53:08.805Z,52.20
2019-03-26T11:55:40.161Z,51.40
2019-03-26T11:58:11.450Z,50.30
2019-03-26T12:00:42.801Z,50.70
2019-03-26T12:03:14.034Z,49.20
2019-03-26T12:05:45.730Z,49.40
2019-03-26T12:08:16.947Z,47.90
2019-03-26T12:10:48.201Z,48.20
2019-03-26T12:13:19.470Z,47.80
2019-03-26T12:15:51.928Z,47.80
2019-03-26T12:18:23.374Z,47.50
2019-03-26T12:20:54.645Z,47.40
2019-03-26T12:23:25.941Z,47.60
2019-03-26T12:25:57.279Z,44.90
2019-03-26T12:28:28.648Z,45.20
2019-03-26T12:30:59.936Z,45.30
2019-03-26T12:33:31.193Z,45.80
2019-03-26T12:36:02.456Z,46.40
2019-03-26T12:38:33.715Z,46.00
2019-03-26T12:41:05.005Z,46.80
2019-03-26T12:43:36.259Z,47.10
2019-03-26T12:46:07.533Z,46.50
2019-03-26T12:48:38.878Z,46.00
2019-03-26T12:51:10.171Z,46.60
2019-03-26T12:53:41.315Z,44.80
2019-03-26T12:56:12.925Z,45.60
2019-03-26T12:58:44.366Z,44.40
2019-03-26T13:01:15.658Z,44.50
2019-03-26T13:03:46.879Z,45.10
2019-03-26T13:06:18.131Z,43.90
2019-03-26T13:08:49.361Z,44.10
2019-03-26T13:11:20.766Z,44.30
2019-03-26T13:13:52.667Z,42.10
2019-03-26T13:16:23.895Z,43.40
2019-03-26T13:18:55.159Z,42.50
2019-03-26T13:21:26.386Z,41.60
2019-03-26T13:23:57.686Z,40.40
2019-03-26T13:26:28.971Z,41.40
2019-03-26T13:29:00.427Z,41.70
2019-03-26T13:31:32.313Z,41.70
2019-03-26T13:34:03.591Z,41.80
2019-03-26T13:36:35.133Z,42.50
2019-03-26T13:39:09.544Z,42.20
2019-03-26T13:41:41.002Z,43.40
2019-03-26T13:44:12.269Z,41.70
2019-03-26T13:46:43.753Z,44.20
2019-03-26T13:49:15.100Z,43.70
2019-03-26T13:51:46.425Z,43.40
2019-03-26T13:54:17.694Z,44.10
2019-03-26T13:56:48.903Z,44.30
2019-03-26T13:59:20.224Z,43.40
2019-03-26T14:01:51.659Z,43.80
2019-03-26T14:04:22.904Z,43.00
2019-03-26T14:06:54.315Z,42.80
2019-03-26T14:09:25.659Z,44.30
2019-03-26T14:11:57.809Z,43.50
2019-03-26T14:14:29.753Z,43.90
2019-03-26T14:17:01.008Z,44.40
2019-03-26T14:19:32.283Z,45.00
2019-03-26T14:22:03.562Z,45.50
2019-03-26T14:24:34.820Z,44.70
2019-03-26T14:27:06.082Z,44.70
2019-03-26T14:29:37.361Z,45.80
2019-03-26T14:32:08.608Z,45.70
2019-03-26T14:34:39.983Z,45.10
2019-03-26T14:37:11.282Z,44.10
2019-03-26T14:39:42.601Z,44.90
2019-03-26T14:42:13.955Z,44.40
2019-03-26T14:44:45.223Z,45.30
2019-03-26T14:47:16.480Z,45.20
2019-03-26T14:49:47.830Z,45.20
2019-03-26T14:52:19.115Z,45.80
2019-03-26T14:54:50.450Z,46.00
2019-03-26T14:57:21.772Z,45.70
2019-03-26T14:59:53.135Z,46.10
2019-03-26T15:02:24.412Z,44.70
2019-03-26T15:04:55.650Z,44.50
2019-03-26T15:07:26.959Z,44.70
2019-03-26T15:09:58.186Z,45.30
2019-03-26T15:12:29.595Z,45.70
2019-03-26T15:15:00.891Z,45.40
2019-03-26T15:17:32.256Z,46.90
2019-03-26T15:20:03.846Z,46.40
2019-03-26T15:22:35.151Z,46.50
2019-03-26T15:25:06.605Z,47.50
2019-03-26T15:27:37.981Z,47.90
2019-03-26T15:30:10.326Z,47.90
2019-03-26T15:32:41.614Z,48.10
2019-03-26T15:35:12.931Z,48.20
2019-03-26T15:37:44.218Z,48.20
2019-03-26T15:40:15.788Z,48.40
2019-03-26T15:42:47.092Z,48.20
2019-03-26T15:45:18.618Z,48.20
2019-03-26T15:47:49.879Z,48.50
2019-03-26T15:50:41.599Z,48.90
2019-03-26T15:53:13.006Z,48.90
2019-03-26T15:55:44.538Z,49.40
2019-03-26T15:58:15.859Z,48.40
2019-03-26T16:00:47.086Z,48.40
2019-03-26T16:03:18.366Z,48.50
2019-03-26T16:05:49.593Z,48.80
2019-03-26T16:08:20.849Z,49.00
2019-03-26T16:10:52.253Z,49.10
2019-03-26T16:13:23.654Z,49.50
2019-03-26T16:15:54.932Z,49.80
2019-03-26T16:18:26.395Z,49.60
2019-03-26T16:20:57.912Z,50.00
2019-03-26T16:23:29.297Z,50.70
2019-03-26T16:26:00.748Z,51.00
2019-03-26T16:28:32.128Z,51.90
2019-03-26T16:31:03.605Z,52.00
2019-03-26T16:33:34.880Z,51.70
2019-03-26T16:36:06.307Z,52.30
2019-03-26T16:38:37.540Z,53.00
2019-03-26T16:41:08.928Z,52.80
2019-03-26T16:43:40.246Z,52.60
2019-03-26T16:46:11.518Z,52.90
2019-03-26T16:48:42.883Z,53.00
2019-03-26T16:51:14.267Z,53.10
2019-03-26T16:53:45.715Z,52.90
2019-03-26T16:56:17.098Z,53.30
2019-03-26T16:58:48.423Z,53.00
2019-03-26T17:01:19.744Z,53.20
2019-03-26T17:03:51.014Z,53.70
2019-03-26T17:06:22.350Z,53.80
2019-03-26T17:08:53.685Z,53.60
2019-03-26T17:11:25.205Z,53.50
2019-03-26T17:13:56.664Z,53.90
2019-03-26T17:16:28.222Z,54.30
2019-03-26T17:18:59.654Z,54.30
2019-03-26T17:21:30.971Z,54.50
2019-03-26T17:24:02.349Z,54.80
2019-03-26T17:26:33.722Z,55.40
2019-03-26T17:29:05.032Z,55.20
2019-03-26T17:31:36.337Z,55.00
2019-03-26T17:34:07.630Z,54.60
2019-03-26T17:36:39.045Z,55.10
2019-03-26T17:39:10.786Z,55.60
2019-03-26T17:41:42.211Z,55.60
2019-03-26T17:44:13.516Z,56.00
2019-03-26T17:46:45.035Z,56.30
2019-03-26T17:49:16.513Z,56.40
2019-03-26T17:51:47.799Z,56.70
2019-03-26T17:54:19.140Z,57.70
2019-03-26T17:56:50.420Z,58.00
2019-03-26T17:59:21.700Z,58.20
2019-03-26T18:01:54.398Z,60.50
2019-03-26T18:04:26.308Z,58.70
2019-03-26T18:06:57.612Z,59.40
2019-03-26T18:09:28.950Z,61.70
2019-03-26T18:12:00.345Z,61.80
2019-03-26T18:14:31.675Z,61.90
2019-03-26T18:17:03.036Z,63.10
2019-03-26T18:19:34.382Z,62.80
2019-03-26T18:22:05.870Z,63.90
2019-03-26T18:24:37.131Z,64.30
2019-03-26T18:27:08.439Z,64.00
2019-03-26T18:29:39.726Z,63.60
2019-03-26T18:32:11.146Z,64.30
2019-03-26T18:34:42.474Z,64.30
2019-03-26T18:37:13.806Z,63.40
2019-03-26T18:39:45.229Z,65.10
2019-03-26T18:42:16.490Z,65.80
2019-03-26T18:44:47.885Z,65.80
2019-03-26T18:47:19.212Z,65.80
2019-03-26T18:49:51.861Z,66.00
2019-03-26T18:52:23.539Z,65.90
2019-03-26T18:54:54.829Z,66.80
2019-03-26T18:57:26.201Z,66.90
2019-03-26T18:59:57.566Z,67.30
2019-03-26T19:02:28.858Z,67.60
2019-03-26T19:05:02.442Z,67.90
2019-03-26T19:07:34.211Z,68.30
2019-03-26T19:10:09.751Z,69.00
2019-03-26T19:12:41.679Z,69.30
2019-03-26T19:15:14.014Z,70.10
2019-03-26T19:17:45.949Z,70.10
2019-03-26T19:20:17.589Z,70.50
2019-03-26T19:22:49.317Z,71.20
2019-03-26T19:25:20.972Z,71.40
2019-03-26T19:27:52.617Z,72.00
2019-03-26T19:30:24.573Z,72.50
2019-03-26T19:32:57.856Z,73.30
2019-03-26T19:35:29.632Z,74.10
2019-03-26T19:38:03.480Z,74.30
2019-03-26T19:40:34.878Z,74.90
2019-03-26T19:43:11.429Z,75.30
2019-03-26T19:45:39.614Z,76.00
2019-03-26T19:48:11.033Z,76.70
2019-03-26T19:50:42.435Z,76.80
2019-03-26T19:53:14.354Z,77.20
2019-03-26T19:55:45.999Z,77.70
2019-03-26T19:58:17.740Z,77.50
2019-03-26T20:00:49.606Z,77.60
2019-03-26T20:03:23.393Z,78.00
2019-03-26T20:05:55.151Z,78.80
2019-03-26T20:08:26.882Z,79.60
2019-03-26T20:10:58.464Z,78.70
2019-03-26T20:13:30.302Z,78.80
2019-03-26T20:16:01.663Z,78.90
2019-03-26T20:18:33.211Z,79.30
2019-03-26T20:21:12.417Z,79.50
2019-03-26T20:23:43.923Z,80.20
2019-03-26T20:26:15.412Z,80.90
2019-03-26T20:28:46.715Z,81.20
2019-03-26T20:31:18.067Z,80.80
2019-03-26T20:33:49.389Z,80.60
2019-03-26T20:36:20.729Z,80.40
2019-03-26T20:38:52.099Z,80.40
2019-03-26T20:41:23.534Z,80.60
2019-03-26T20:43:54.927Z,80.90
2019-03-26T20:46:26.270Z,80.70
2019-03-26T20:48:57.740Z,80.20
2019-03-26T20:51:29.011Z,80.80
2019-03-26T20:54:00.372Z,80.60
2019-03-26T20:56:31.965Z,80.40
2019-03-26T20:59:03.874Z,80.80
2019-03-26T21:01:35.184Z,81.20
2019-03-26T21:04:06.573Z,81.40
2019-03-26T21:06:37.823Z,81.00
2019-03-26T21:09:10.138Z,82.20
2019-03-26T21:11:41.463Z,81.30
2019-03-26T21:14:12.751Z,81.50
2019-03-26T21:16:44.012Z,81.60
2019-03-26T21:19:15.623Z,82.50
2019-03-26T21:21:46.895Z,82.50
2019-03-26T21:24:18.137Z,82.90
2019-03-26T21:26:49.474Z,83.20
2019-03-26T21:29:20.879Z,83.90
2019-03-26T21:31:52.315Z,83.80
2019-03-26T21:34:30.365Z,83.70
2019-03-26T21:36:56.680Z,83.50
2019-03-26T21:39:28.022Z,84.00
2019-03-26T21:41:59.291Z,84.60
2019-03-26T21:44:30.583Z,85.00
2019-03-26T21:47:01.942Z,84.60
2019-03-26T21:49:33.308Z,85.10
2019-03-26T21:52:04.595Z,85.70
2019-03-26T21:54:36.047Z,86.50
2019-03-26T21:57:07.341Z,86.80
2019-03-26T21:59:38.566Z,87.50
2019-03-26T22:02:10.061Z,87.80
2019-03-26T22:04:41.418Z,88.10
2019-03-26T22:07:12.717Z,88.20
2019-03-26T22:09:43.950Z,88.00
2019-03-26T22:12:15.232Z,87.60
2019-03-26T22:14:46.474Z,88.20
2019-03-26T22:17:16.413Z,89.00
2019-03-26T22:19:47.638Z,89.20
2019-03-26T22:22:19.050Z,89.00
2019-03-26T22:24:50.332Z,88.60
2019-03-26T22:27:22.927Z,88.00
2019-03-26T22:29:54.391Z,88.60
2019-03-26T22:32:25.704Z,88.20
2019-03-26T22:34:56.961Z,88.40
2019-03-26T22:37:28.315Z,88.10
2019-03-26T22:39:59.607Z,87.80
2019-03-26T22:42:31.125Z,88.00
2019-03-26T22:45:02.457Z,88.20
2019-03-26T22:47:33.868Z,88.40
2019-03-26T22:50:05.723Z,87.40
2019-03-26T22:52:37.204Z,87.70
2019-03-26T22:55:09.849Z,88.60
2019-03-26T22:57:41.136Z,89.20
2019-03-26T23:00:15.040Z,89.80
2019-03-26T23:02:46.605Z,90.20
2019-03-26T23:05:18.714Z,90.10
2019-03-26T23:07:50.087Z,90.10
2019-03-26T23:10:22.205Z,89.70
2019-03-26T23:12:53.459Z,88.80
2019-03-26T23:15:27.720Z,88.50
2019-03-26T23:17:59.035Z,88.30
2019-03-26T23:20:30.336Z,89.30
2019-03-26T23:23:01.600Z,90.00
2019-03-26T23:25:32.862Z,89.10
2019-03-26T23:28:04.121Z,89.90
2019-03-26T23:30:35.321Z,89.30
2019-03-26T23:33:06.608Z,89.30
2019-03-26T23:35:37.830Z,89.40
2019-03-26T23:38:09.115Z,90.00
2019-03-26T23:40:40.458Z,90.20
2019-03-26T23:43:11.702Z,90.20
2019-03-26T23:45:43.004Z,90.10
2019-03-26T23:48:14.268Z,90.10
2019-03-26T23:50:45.544Z,90.40
2019-03-26T23:53:16.820Z,90.20
2019-03-26T23:55:48.133Z,90.10
2019-03-26T23:58:19.398Z,90.30
